Terminal Aerodrome Forecast
Issued by NWS

Home | Current Version | Previous Version | Text Only | Print | Product List | Glossary On
Versions: 1 2 3 4 5 6 7 8 9 10 11 12 13 14 15 16 17
546
FTUS46 KLOX 250539
TAFWJF
TAF
KWJF 250539Z 2506/2606 23015KT P6SM SKC
     FM251600 23015G25KT P6SM SCT250
     FM252000 23025G35KT P6SM SCT250
     FM260300 25018KT P6SM SCT250=

USA.gov is the U.S. government's official web portal to all federal, state and local government web resources and services.